sensor_id;sensor_type;location;lat;lon;timestamp;P1;durP1;ratioP1;P2;durP2;ratioP2
55090;SDS011;40985;53.180;5.800;2022-10-26T00:00:48;18.67;;;11.30;;
55090;SDS011;40985;53.180;5.800;2022-10-26T00:03:14;16.48;;;11.63;;
55090;SDS011;40985;53.180;5.800;2022-10-26T00:05:40;12.18;;;9.52;;
55090;SDS011;40985;53.180;5.800;2022-10-26T00:08:06;17.98;;;10.63;;
55090;SDS011;40985;53.180;5.800;2022-10-26T00:10:35;14.82;;;10.73;;
55090;SDS011;40985;53.180;5.800;2022-10-26T00:13:03;14.40;;;10.45;;
55090;SDS011;40985;53.180;5.800;2022-10-26T00:15:30;15.00;;;9.63;;
55090;SDS011;40985;53.180;5.800;2022-10-26T00:17:56;20.15;;;11.32;;
55090;SDS011;40985;53.180;5.800;2022-10-26T00:20:22;18.17;;;9.93;;
55090;SDS011;40985;53.180;5.800;2022-10-26T00:22:48;18.98;;;11.10;;
55090;SDS011;40985;53.180;5.800;2022-10-26T00:25:13;16.67;;;10.73;;
55090;SDS011;40985;53.180;5.800;2022-10-26T00:27:39;21.13;;;11.23;;
55090;SDS011;40985;53.180;5.800;2022-10-26T00:30:05;22.05;;;11.93;;
55090;SDS011;40985;53.180;5.800;2022-10-26T00:32:31;21.85;;;11.95;;
55090;SDS011;40985;53.180;5.800;2022-10-26T00:34:58;14.80;;;11.60;;
55090;SDS011;40985;53.180;5.800;2022-10-26T00:37:24;19.48;;;12.05;;
55090;SDS011;40985;53.180;5.800;2022-10-26T00:39:49;20.98;;;12.07;;
55090;SDS011;40985;53.180;5.800;2022-10-26T00:42:19;13.55;;;10.52;;
55090;SDS011;40985;53.180;5.800;2022-10-26T00:47:32;18.42;;;11.98;;
55090;SDS011;40985;53.180;5.800;2022-10-26T00:50:00;19.23;;;12.23;;
55090;SDS011;40985;53.180;5.800;2022-10-26T00:52:30;24.38;;;12.00;;
55090;SDS011;40985;53.180;5.800;2022-10-26T00:54:56;19.83;;;11.43;;
55090;SDS011;40985;53.180;5.800;2022-10-26T00:57:22;20.50;;;11.77;;
55090;SDS011;40985;53.180;5.800;2022-10-26T00:59:48;17.98;;;11.18;;
55090;SDS011;40985;53.180;5.800;2022-10-26T01:02:18;16.70;;;11.38;;
55090;SDS011;40985;53.180;5.800;2022-10-26T01:04:44;15.38;;;11.10;;
55090;SDS011;40985;53.180;5.800;2022-10-26T01:07:11;28.58;;;11.70;;
55090;SDS011;40985;53.180;5.800;2022-10-26T01:09:37;17.50;;;11.13;;
55090;SDS011;40985;53.180;5.800;2022-10-26T01:12:04;18.20;;;12.20;;
55090;SDS011;40985;53.180;5.800;2022-10-26T01:14:29;16.40;;;12.00;;
55090;SDS011;40985;53.180;5.800;2022-10-26T01:25:53;16.33;;;11.20;;
55090;SDS011;40985;53.180;5.800;2022-10-26T01:31:23;19.58;;;12.43;;
55090;SDS011;40985;53.180;5.800;2022-10-26T01:34:00;15.55;;;11.48;;
55090;SDS011;40985;53.180;5.800;2022-10-26T01:36:41;24.60;;;12.00;;
55090;SDS011;40985;53.180;5.800;2022-10-26T01:39:13;18.50;;;11.57;;
55090;SDS011;40985;53.180;5.800;2022-10-26T01:41:49;18.65;;;12.52;;
55090;SDS011;40985;53.180;5.800;2022-10-26T01:44:30;20.85;;;12.15;;
55090;SDS011;40985;53.180;5.800;2022-10-26T01:47:03;15.45;;;12.35;;
55090;SDS011;40985;53.180;5.800;2022-10-26T01:49:32;19.90;;;12.50;;
55090;SDS011;40985;53.180;5.800;2022-10-26T01:52:02;20.13;;;12.38;;
55090;SDS011;40985;53.180;5.800;2022-10-26T01:54:28;22.75;;;12.30;;
55090;SDS011;40985;53.180;5.800;2022-10-26T01:56:55;20.08;;;11.90;;
55090;SDS011;40985;53.180;5.800;2022-10-26T01:59:29;16.88;;;12.10;;
55090;SDS011;40985;53.180;5.800;2022-10-26T02:10:04;20.40;;;11.95;;
55090;SDS011;40985;53.180;5.800;2022-10-26T02:12:59;20.50;;;12.15;;
55090;SDS011;40985;53.180;5.800;2022-10-26T02:15:33;19.95;;;11.48;;
55090;SDS011;40985;53.180;5.800;2022-10-26T02:21:17;19.10;;;11.93;;
55090;SDS011;40985;53.180;5.800;2022-10-26T02:23:47;22.73;;;12.93;;
55090;SDS011;40985;53.180;5.800;2022-10-26T02:26:17;26.25;;;12.95;;
55090;SDS011;40985;53.180;5.800;2022-10-26T02:28:47;27.17;;;13.57;;
55090;SDS011;40985;53.180;5.800;2022-10-26T02:31:15;19.60;;;12.73;;
55090;SDS011;40985;53.180;5.800;2022-10-26T02:33:43;20.58;;;13.60;;
55090;SDS011;40985;53.180;5.800;2022-10-26T02:36:12;17.50;;;12.38;;
55090;SDS011;40985;53.180;5.800;2022-10-26T02:38:46;24.85;;;13.07;;
55090;SDS011;40985;53.180;5.800;2022-10-26T02:41:14;26.05;;;14.75;;
55090;SDS011;40985;53.180;5.800;2022-10-26T02:43:42;27.08;;;13.88;;
55090;SDS011;40985;53.180;5.800;2022-10-26T02:46:13;20.02;;;13.77;;
55090;SDS011;40985;53.180;5.800;2022-10-26T02:48:41;25.67;;;14.10;;
55090;SDS011;40985;53.180;5.800;2022-10-26T02:51:11;26.80;;;14.18;;
55090;SDS011;40985;53.180;5.800;2022-10-26T02:53:52;28.52;;;14.00;;
55090;SDS011;40985;53.180;5.800;2022-10-26T02:56:33;22.63;;;14.07;;
55090;SDS011;40985;53.180;5.800;2022-10-26T02:59:06;26.00;;;15.00;;
55090;SDS011;40985;53.180;5.800;2022-10-26T03:01:35;25.27;;;14.98;;
55090;SDS011;40985;53.180;5.800;2022-10-26T03:04:01;21.23;;;13.68;;
55090;SDS011;40985;53.180;5.800;2022-10-26T03:06:27;28.20;;;15.13;;
55090;SDS011;40985;53.180;5.800;2022-10-26T03:08:52;23.45;;;13.60;;
55090;SDS011;40985;53.180;5.800;2022-10-26T03:11:18;24.48;;;14.93;;
55090;SDS011;40985;53.180;5.800;2022-10-26T03:13:44;19.58;;;13.95;;
55090;SDS011;40985;53.180;5.800;2022-10-26T03:16:09;27.80;;;16.02;;
55090;SDS011;40985;53.180;5.800;2022-10-26T03:18:35;24.05;;;14.82;;
55090;SDS011;40985;53.180;5.800;2022-10-26T03:21:01;21.52;;;13.98;;
55090;SDS011;40985;53.180;5.800;2022-10-26T03:23:27;27.75;;;15.98;;
55090;SDS011;40985;53.180;5.800;2022-10-26T03:25:56;25.65;;;15.00;;
55090;SDS011;40985;53.180;5.800;2022-10-26T03:28:23;24.95;;;15.60;;
55090;SDS011;40985;53.180;5.800;2022-10-26T03:30:49;24.33;;;15.65;;
55090;SDS011;40985;53.180;5.800;2022-10-26T03:33:14;26.15;;;15.05;;
55090;SDS011;40985;53.180;5.800;2022-10-26T03:35:40;25.02;;;14.88;;
55090;SDS011;40985;53.180;5.800;2022-10-26T03:38:06;26.10;;;15.43;;
55090;SDS011;40985;53.180;5.800;2022-10-26T03:40:31;25.35;;;15.13;;
55090;SDS011;40985;53.180;5.800;2022-10-26T03:42:57;25.77;;;16.02;;
55090;SDS011;40985;53.180;5.800;2022-10-26T03:45:23;24.63;;;15.50;;
55090;SDS011;40985;53.180;5.800;2022-10-26T03:47:48;32.00;;;16.08;;
55090;SDS011;40985;53.180;5.800;2022-10-26T03:50:16;22.58;;;14.70;;
55090;SDS011;40985;53.180;5.800;2022-10-26T03:52:44;26.35;;;15.88;;
55090;SDS011;40985;53.180;5.800;2022-10-26T03:55:11;22.27;;;16.98;;
55090;SDS011;40985;53.180;5.800;2022-10-26T03:57:40;25.17;;;15.68;;
55090;SDS011;40985;53.180;5.800;2022-10-26T04:00:07;28.45;;;17.77;;
55090;SDS011;40985;53.180;5.800;2022-10-26T04:02:39;28.23;;;18.35;;
55090;SDS011;40985;53.180;5.800;2022-10-26T04:05:06;27.42;;;17.30;;
55090;SDS011;40985;53.180;5.800;2022-10-26T04:07:32;29.92;;;18.63;;
55090;SDS011;40985;53.180;5.800;2022-10-26T04:09:58;29.83;;;18.65;;
55090;SDS011;40985;53.180;5.800;2022-10-26T04:12:23;30.08;;;19.83;;
55090;SDS011;40985;53.180;5.800;2022-10-26T04:14:49;31.00;;;20.50;;
55090;SDS011;40985;53.180;5.800;2022-10-26T04:17:15;32.75;;;21.00;;
55090;SDS011;40985;53.180;5.800;2022-10-26T04:19:41;38.13;;;21.55;;
55090;SDS011;40985;53.180;5.800;2022-10-26T04:22:06;32.20;;;22.55;;
55090;SDS011;40985;53.180;5.800;2022-10-26T04:24:32;37.17;;;23.02;;
55090;SDS011;40985;53.180;5.800;2022-10-26T04:26:57;37.40;;;22.85;;
55090;SDS011;40985;53.180;5.800;2022-10-26T04:29:23;34.28;;;23.27;;
55090;SDS011;40985;53.180;5.800;2022-10-26T04:31:49;36.83;;;23.77;;
55090;SDS011;40985;53.180;5.800;2022-10-26T04:34:14;33.35;;;23.30;;
55090;SDS011;40985;53.180;5.800;2022-10-26T04:36:40;35.97;;;23.48;;
55090;SDS011;40985;53.180;5.800;2022-10-26T04:39:06;34.92;;;24.52;;
55090;SDS011;40985;53.180;5.800;2022-10-26T04:41:31;36.90;;;23.67;;
55090;SDS011;40985;53.180;5.800;2022-10-26T04:43:57;39.05;;;23.80;;
55090;SDS011;40985;53.180;5.800;2022-10-26T04:46:22;34.53;;;23.20;;
55090;SDS011;40985;53.180;5.800;2022-10-26T04:48:48;34.15;;;22.10;;
55090;SDS011;40985;53.180;5.800;2022-10-26T04:51:14;35.50;;;23.65;;
55090;SDS011;40985;53.180;5.800;2022-10-26T04:53:39;36.50;;;24.10;;
55090;SDS011;40985;53.180;5.800;2022-10-26T04:56:05;34.47;;;23.88;;
55090;SDS011;40985;53.180;5.800;2022-10-26T04:58:31;35.40;;;24.10;;
55090;SDS011;40985;53.180;5.800;2022-10-26T05:00:57;37.45;;;24.10;;
55090;SDS011;40985;53.180;5.800;2022-10-26T05:03:22;38.67;;;23.83;;
55090;SDS011;40985;53.180;5.800;2022-10-26T05:05:48;34.67;;;24.35;;
55090;SDS011;40985;53.180;5.800;2022-10-26T05:08:14;38.67;;;24.55;;
55090;SDS011;40985;53.180;5.800;2022-10-26T05:10:40;38.47;;;24.23;;
55090;SDS011;40985;53.180;5.800;2022-10-26T05:13:07;33.15;;;22.95;;
55090;SDS011;40985;53.180;5.800;2022-10-26T05:15:33;32.50;;;23.42;;
55090;SDS011;40985;53.180;5.800;2022-10-26T05:18:00;36.40;;;23.20;;
55090;SDS011;40985;53.180;5.800;2022-10-26T05:20:28;36.45;;;21.90;;
55090;SDS011;40985;53.180;5.800;2022-10-26T05:22:58;39.83;;;24.30;;
55090;SDS011;40985;53.180;5.800;2022-10-26T05:25:27;35.85;;;22.38;;
55090;SDS011;40985;53.180;5.800;2022-10-26T05:27:57;37.55;;;22.30;;
55090;SDS011;40985;53.180;5.800;2022-10-26T05:30:24;34.63;;;22.00;;
55090;SDS011;40985;53.180;5.800;2022-10-26T05:32:57;33.72;;;23.15;;
55090;SDS011;40985;53.180;5.800;2022-10-26T05:35:24;38.42;;;23.35;;
55090;SDS011;40985;53.180;5.800;2022-10-26T05:37:51;37.88;;;22.27;;
55090;SDS011;40985;53.180;5.800;2022-10-26T05:40:17;35.97;;;22.80;;
55090;SDS011;40985;53.180;5.800;2022-10-26T05:42:43;31.70;;;21.85;;
55090;SDS011;40985;53.180;5.800;2022-10-26T05:45:10;37.13;;;22.95;;
55090;SDS011;40985;53.180;5.800;2022-10-26T05:47:39;36.92;;;23.00;;
55090;SDS011;40985;53.180;5.800;2022-10-26T05:50:09;31.20;;;22.35;;
55090;SDS011;40985;53.180;5.800;2022-10-26T05:52:39;29.35;;;22.02;;
55090;SDS011;40985;53.180;5.800;2022-10-26T05:55:05;35.10;;;22.20;;
55090;SDS011;40985;53.180;5.800;2022-10-26T05:57:31;37.85;;;23.08;;
55090;SDS011;40985;53.180;5.800;2022-10-26T05:59:57;32.42;;;21.25;;
55090;SDS011;40985;53.180;5.800;2022-10-26T06:04:56;29.65;;;20.48;;
55090;SDS011;40985;53.180;5.800;2022-10-26T06:07:28;36.60;;;21.13;;
55090;SDS011;40985;53.180;5.800;2022-10-26T06:09:54;34.45;;;20.83;;
55090;SDS011;40985;53.180;5.800;2022-10-26T06:12:20;29.02;;;21.95;;
55090;SDS011;40985;53.180;5.800;2022-10-26T06:14:46;32.13;;;21.88;;
55090;SDS011;40985;53.180;5.800;2022-10-26T06:23:19;34.20;;;20.85;;
55090;SDS011;40985;53.180;5.800;2022-10-26T06:28:59;29.90;;;20.40;;
55090;SDS011;40985;53.180;5.800;2022-10-26T06:31:34;33.65;;;19.63;;
55090;SDS011;40985;53.180;5.800;2022-10-26T06:34:00;31.50;;;19.70;;
55090;SDS011;40985;53.180;5.800;2022-10-26T06:36:27;26.05;;;19.40;;
55090;SDS011;40985;53.180;5.800;2022-10-26T06:38:54;27.23;;;19.33;;
55090;SDS011;40985;53.180;5.800;2022-10-26T06:41:25;32.93;;;19.37;;
55090;SDS011;40985;53.180;5.800;2022-10-26T06:43:52;30.90;;;20.73;;
55090;SDS011;40985;53.180;5.800;2022-10-26T06:52:09;31.55;;;19.40;;
55090;SDS011;40985;53.180;5.800;2022-10-26T06:54:49;33.17;;;20.42;;
55090;SDS011;40985;53.180;5.800;2022-10-26T06:57:20;29.38;;;18.88;;
55090;SDS011;40985;53.180;5.800;2022-10-26T07:02:15;30.52;;;20.60;;
55090;SDS011;40985;53.180;5.800;2022-10-26T07:04:42;28.25;;;19.00;;
55090;SDS011;40985;53.180;5.800;2022-10-26T07:07:09;30.48;;;19.52;;
55090;SDS011;40985;53.180;5.800;2022-10-26T07:09:38;32.13;;;20.27;;
55090;SDS011;40985;53.180;5.800;2022-10-26T07:12:04;30.25;;;20.48;;
55090;SDS011;40985;53.180;5.800;2022-10-26T07:14:30;31.05;;;19.48;;
55090;SDS011;40985;53.180;5.800;2022-10-26T07:16:56;30.33;;;19.65;;
55090;SDS011;40985;53.180;5.800;2022-10-26T07:19:22;30.27;;;19.67;;
55090;SDS011;40985;53.180;5.800;2022-10-26T07:21:47;27.67;;;19.73;;
55090;SDS011;40985;53.180;5.800;2022-10-26T07:24:13;29.63;;;20.08;;
55090;SDS011;40985;53.180;5.800;2022-10-26T07:26:39;31.10;;;18.70;;
55090;SDS011;40985;53.180;5.800;2022-10-26T07:29:04;28.90;;;18.48;;
55090;SDS011;40985;53.180;5.800;2022-10-26T07:31:30;29.55;;;18.50;;
55090;SDS011;40985;53.180;5.800;2022-10-26T07:33:56;27.90;;;18.38;;
55090;SDS011;40985;53.180;5.800;2022-10-26T07:36:21;25.85;;;17.10;;
55090;SDS011;40985;53.180;5.800;2022-10-26T07:38:50;23.17;;;16.63;;
55090;SDS011;40985;53.180;5.800;2022-10-26T07:41:17;25.02;;;16.92;;
55090;SDS011;40985;53.180;5.800;2022-10-26T07:43:43;25.48;;;16.17;;
55090;SDS011;40985;53.180;5.800;2022-10-26T07:46:10;24.42;;;15.93;;
55090;SDS011;40985;53.180;5.800;2022-10-26T07:48:36;22.27;;;15.90;;
55090;SDS011;40985;53.180;5.800;2022-10-26T07:51:02;19.77;;;15.27;;
55090;SDS011;40985;53.180;5.800;2022-10-26T07:53:28;24.02;;;15.20;;
55090;SDS011;40985;53.180;5.800;2022-10-26T07:55:54;23.88;;;15.80;;
55090;SDS011;40985;53.180;5.800;2022-10-26T07:58:20;24.15;;;14.50;;
55090;SDS011;40985;53.180;5.800;2022-10-26T08:00:49;21.05;;;13.95;;
55090;SDS011;40985;53.180;5.800;2022-10-26T08:03:19;22.85;;;14.48;;
55090;SDS011;40985;53.180;5.800;2022-10-26T08:05:45;22.33;;;15.02;;
55090;SDS011;40985;53.180;5.800;2022-10-26T08:08:20;20.02;;;13.00;;
55090;SDS011;40985;53.180;5.800;2022-10-26T08:10:46;18.17;;;13.48;;
55090;SDS011;40985;53.180;5.800;2022-10-26T08:13:12;18.77;;;12.80;;
55090;SDS011;40985;53.180;5.800;2022-10-26T08:15:38;18.55;;;13.73;;
55090;SDS011;40985;53.180;5.800;2022-10-26T08:18:04;18.08;;;12.43;;
55090;SDS011;40985;53.180;5.800;2022-10-26T08:20:30;18.42;;;13.00;;
55090;SDS011;40985;53.180;5.800;2022-10-26T08:22:56;19.10;;;12.88;;
55090;SDS011;40985;53.180;5.800;2022-10-26T08:25:22;18.63;;;12.77;;
55090;SDS011;40985;53.180;5.800;2022-10-26T08:27:47;15.15;;;11.32;;
55090;SDS011;40985;53.180;5.800;2022-10-26T08:30:13;17.65;;;11.32;;
55090;SDS011;40985;53.180;5.800;2022-10-26T08:32:39;14.20;;;10.90;;
55090;SDS011;40985;53.180;5.800;2022-10-26T08:35:06;16.08;;;10.45;;
55090;SDS011;40985;53.180;5.800;2022-10-26T08:37:33;16.23;;;10.45;;
55090;SDS011;40985;53.180;5.800;2022-10-26T08:39:58;14.35;;;10.40;;
55090;SDS011;40985;53.180;5.800;2022-10-26T08:42:29;13.00;;;9.35;;
55090;SDS011;40985;53.180;5.800;2022-10-26T08:45:09;14.75;;;9.50;;
55090;SDS011;40985;53.180;5.800;2022-10-26T08:47:47;14.52;;;9.27;;
55090;SDS011;40985;53.180;5.800;2022-10-26T08:55:46;13.43;;;7.55;;
55090;SDS011;40985;53.180;5.800;2022-10-26T08:58:24;11.48;;;6.60;;
55090;SDS011;40985;53.180;5.800;2022-10-26T09:01:02;7.95;;;5.63;;
55090;SDS011;40985;53.180;5.800;2022-10-26T09:03:29;8.55;;;6.05;;
55090;SDS011;40985;53.180;5.800;2022-10-26T09:08:40;7.60;;;5.22;;
55090;SDS011;40985;53.180;5.800;2022-10-26T09:14:17;7.95;;;4.90;;
55090;SDS011;40985;53.180;5.800;2022-10-26T09:17:21;7.50;;;4.15;;
55090;SDS011;40985;53.180;5.800;2022-10-26T09:22:56;8.23;;;4.00;;
55090;SDS011;40985;53.180;5.800;2022-10-26T09:25:43;6.55;;;3.45;;
55090;SDS011;40985;53.180;5.800;2022-10-26T09:28:16;7.50;;;3.75;;
55090;SDS011;40985;53.180;5.800;2022-10-26T09:30:43;6.05;;;3.60;;
55090;SDS011;40985;53.180;5.800;2022-10-26T09:33:15;3.30;;;2.97;;
55090;SDS011;40985;53.180;5.800;2022-10-26T09:35:45;9.27;;;3.65;;
55090;SDS011;40985;53.180;5.800;2022-10-26T09:40:47;5.88;;;2.50;;
55090;SDS011;40985;53.180;5.800;2022-10-26T09:43:23;7.07;;;2.55;;
55090;SDS011;40985;53.180;5.800;2022-10-26T09:45:55;7.20;;;3.53;;
55090;SDS011;40985;53.180;5.800;2022-10-26T09:48:25;4.53;;;2.50;;
55090;SDS011;40985;53.180;5.800;2022-10-26T09:50:51;6.78;;;2.75;;
55090;SDS011;40985;53.180;5.800;2022-10-26T09:53:17;3.38;;;2.33;;
55090;SDS011;40985;53.180;5.800;2022-10-26T09:55:44;6.60;;;2.95;;
55090;SDS011;40985;53.180;5.800;2022-10-26T09:58:23;3.92;;;2.40;;
55090;SDS011;40985;53.180;5.800;2022-10-26T10:00:53;6.60;;;2.78;;
55090;SDS011;40985;53.180;5.800;2022-10-26T10:03:20;4.55;;;2.30;;
55090;SDS011;40985;53.180;5.800;2022-10-26T10:06:12;5.90;;;2.50;;
55090;SDS011;40985;53.180;5.800;2022-10-26T10:08:43;5.60;;;2.05;;
55090;SDS011;40985;53.180;5.800;2022-10-26T10:11:48;6.97;;;2.72;;
55090;SDS011;40985;53.180;5.800;2022-10-26T10:14:19;7.00;;;2.22;;
55090;SDS011;40985;53.180;5.800;2022-10-26T10:17:04;3.58;;;1.92;;
55090;SDS011;40985;53.180;5.800;2022-10-26T10:19:33;4.47;;;1.95;;
55090;SDS011;40985;53.180;5.800;2022-10-26T10:22:00;8.95;;;2.05;;
55090;SDS011;40985;53.180;5.800;2022-10-26T10:24:39;6.18;;;1.77;;
55090;SDS011;40985;53.180;5.800;2022-10-26T10:29:40;3.42;;;1.55;;
55090;SDS011;40985;53.180;5.800;2022-10-26T10:32:29;4.13;;;1.80;;
55090;SDS011;40985;53.180;5.800;2022-10-26T10:34:56;3.70;;;1.77;;
55090;SDS011;40985;53.180;5.800;2022-10-26T10:37:25;4.60;;;1.65;;
55090;SDS011;40985;53.180;5.800;2022-10-26T10:39:55;4.05;;;1.38;;
55090;SDS011;40985;53.180;5.800;2022-10-26T10:42:30;4.22;;;1.23;;
55090;SDS011;40985;53.180;5.800;2022-10-26T10:44:59;7.43;;;2.03;;
55090;SDS011;40985;53.180;5.800;2022-10-26T10:47:27;5.25;;;1.67;;
55090;SDS011;40985;53.180;5.800;2022-10-26T10:50:05;4.50;;;1.55;;
55090;SDS011;40985;53.180;5.800;2022-10-26T10:52:39;3.28;;;1.63;;
55090;SDS011;40985;53.180;5.800;2022-10-26T10:57:53;4.22;;;1.52;;
55090;SDS011;40985;53.180;5.800;2022-10-26T11:00:43;5.38;;;1.60;;
55090;SDS011;40985;53.180;5.800;2022-10-26T11:06:17;5.55;;;1.73;;
55090;SDS011;40985;53.180;5.800;2022-10-26T11:11:30;6.87;;;1.83;;
55090;SDS011;40985;53.180;5.800;2022-10-26T11:14:05;4.57;;;1.15;;
55090;SDS011;40985;53.180;5.800;2022-10-26T11:16:46;8.02;;;2.22;;
55090;SDS011;40985;53.180;5.800;2022-10-26T11:19:23;4.60;;;1.67;;
55090;SDS011;40985;53.180;5.800;2022-10-26T11:21:57;6.35;;;1.38;;
55090;SDS011;40985;53.180;5.800;2022-10-26T11:24:25;6.50;;;1.30;;
55090;SDS011;40985;53.180;5.800;2022-10-26T11:26:59;3.90;;;1.38;;
55090;SDS011;40985;53.180;5.800;2022-10-26T11:32:19;8.55;;;1.65;;
55090;SDS011;40985;53.180;5.800;2022-10-26T11:37:35;5.30;;;1.60;;
55090;SDS011;40985;53.180;5.800;2022-10-26T11:45:38;5.35;;;1.95;;
55090;SDS011;40985;53.180;5.800;2022-10-26T11:50:43;8.65;;;2.00;;
55090;SDS011;40985;53.180;5.800;2022-10-26T11:55:42;7.07;;;2.22;;
55090;SDS011;40985;53.180;5.800;2022-10-26T11:58:16;4.65;;;1.67;;
55090;SDS011;40985;53.180;5.800;2022-10-26T12:00:44;5.63;;;1.85;;
55090;SDS011;40985;53.180;5.800;2022-10-26T12:03:16;4.38;;;1.60;;
55090;SDS011;40985;53.180;5.800;2022-10-26T12:05:49;6.47;;;1.92;;
55090;SDS011;40985;53.180;5.800;2022-10-26T12:08:18;7.57;;;2.75;;
55090;SDS011;40985;53.180;5.800;2022-10-26T12:13:37;4.63;;;2.45;;
55090;SDS011;40985;53.180;5.800;2022-10-26T12:18:50;5.13;;;2.50;;
55090;SDS011;40985;53.180;5.800;2022-10-26T12:21:22;7.43;;;2.55;;
55090;SDS011;40985;53.180;5.800;2022-10-26T12:24:03;3.95;;;2.35;;
55090;SDS011;40985;53.180;5.800;2022-10-26T12:27:03;5.80;;;1.77;;
55090;SDS011;40985;53.180;5.800;2022-10-26T12:29:31;7.63;;;2.20;;
55090;SDS011;40985;53.180;5.800;2022-10-26T12:37:33;9.93;;;2.20;;
55090;SDS011;40985;53.180;5.800;2022-10-26T12:43:31;7.78;;;2.78;;
55090;SDS011;40985;53.180;5.800;2022-10-26T12:56:48;5.20;;;2.10;;
55090;SDS011;40985;53.180;5.800;2022-10-26T13:07:49;4.53;;;2.08;;
55090;SDS011;40985;53.180;5.800;2022-10-26T13:10:19;7.40;;;3.13;;
55090;SDS011;40985;53.180;5.800;2022-10-26T13:12:48;9.00;;;2.50;;
55090;SDS011;40985;53.180;5.800;2022-10-26T13:15:18;9.13;;;3.05;;
55090;SDS011;40985;53.180;5.800;2022-10-26T13:20:31;6.40;;;2.28;;
55090;SDS011;40985;53.180;5.800;2022-10-26T13:23:00;6.30;;;2.60;;
55090;SDS011;40985;53.180;5.800;2022-10-26T13:25:27;5.03;;;2.50;;
55090;SDS011;40985;53.180;5.800;2022-10-26T13:27:59;4.53;;;2.55;;
55090;SDS011;40985;53.180;5.800;2022-10-26T13:32:57;9.15;;;2.67;;
55090;SDS011;40985;53.180;5.800;2022-10-26T13:35:25;6.47;;;2.63;;
55090;SDS011;40985;53.180;5.800;2022-10-26T13:37:52;4.32;;;2.38;;
55090;SDS011;40985;53.180;5.800;2022-10-26T13:40:22;4.38;;;2.42;;
55090;SDS011;40985;53.180;5.800;2022-10-26T13:42:56;4.82;;;2.40;;
55090;SDS011;40985;53.180;5.800;2022-10-26T13:45:27;4.97;;;1.88;;
55090;SDS011;40985;53.180;5.800;2022-10-26T13:48:11;6.03;;;2.08;;
55090;SDS011;40985;53.180;5.800;2022-10-26T13:50:51;4.72;;;2.00;;
55090;SDS011;40985;53.180;5.800;2022-10-26T13:53:25;8.48;;;1.95;;
55090;SDS011;40985;53.180;5.800;2022-10-26T13:56:02;7.65;;;2.40;;
55090;SDS011;40985;53.180;5.800;2022-10-26T13:58:49;7.28;;;1.42;;
55090;SDS011;40985;53.180;5.800;2022-10-26T14:01:35;7.00;;;1.40;;
55090;SDS011;40985;53.180;5.800;2022-10-26T14:04:16;7.80;;;2.10;;
55090;SDS011;40985;53.180;5.800;2022-10-26T14:06:50;6.07;;;1.17;;
55090;SDS011;40985;53.180;5.800;2022-10-26T14:09:18;3.30;;;0.70;;
55090;SDS011;40985;53.180;5.800;2022-10-26T14:11:48;7.43;;;1.35;;
55090;SDS011;40985;53.180;5.800;2022-10-26T14:14:20;3.40;;;1.15;;
55090;SDS011;40985;53.180;5.800;2022-10-26T14:16:49;6.63;;;1.20;;
55090;SDS011;40985;53.180;5.800;2022-10-26T14:19:21;8.23;;;1.70;;
55090;SDS011;40985;53.180;5.800;2022-10-26T14:21:53;6.70;;;1.30;;
55090;SDS011;40985;53.180;5.800;2022-10-26T14:24:20;7.05;;;1.45;;
55090;SDS011;40985;53.180;5.800;2022-10-26T14:27:17;5.75;;;1.13;;
55090;SDS011;40985;53.180;5.800;2022-10-26T14:29:44;4.90;;;1.20;;
55090;SDS011;40985;53.180;5.800;2022-10-26T14:35:02;23.40;;;1.40;;
55090;SDS011;40985;53.180;5.800;2022-10-26T14:40:03;5.82;;;1.88;;
55090;SDS011;40985;53.180;5.800;2022-10-26T14:42:33;5.85;;;1.80;;
55090;SDS011;40985;53.180;5.800;2022-10-26T14:45:03;7.65;;;1.25;;
55090;SDS011;40985;53.180;5.800;2022-10-26T14:47:33;8.15;;;1.27;;
55090;SDS011;40985;53.180;5.800;2022-10-26T14:50:00;6.03;;;1.20;;
55090;SDS011;40985;53.180;5.800;2022-10-26T14:52:33;5.75;;;1.05;;
55090;SDS011;40985;53.180;5.800;2022-10-26T14:57:34;5.32;;;1.20;;
55090;SDS011;40985;53.180;5.800;2022-10-26T15:00:13;5.50;;;1.35;;
55090;SDS011;40985;53.180;5.800;2022-10-26T15:02:45;4.90;;;1.30;;
55090;SDS011;40985;53.180;5.800;2022-10-26T15:05:25;5.00;;;1.10;;
55090;SDS011;40985;53.180;5.800;2022-10-26T15:07:54;7.80;;;0.90;;
55090;SDS011;40985;53.180;5.800;2022-10-26T15:13:13;8.60;;;1.25;;
55090;SDS011;40985;53.180;5.800;2022-10-26T15:15:43;5.15;;;0.60;;
55090;SDS011;40985;53.180;5.800;2022-10-26T15:18:14;7.50;;;1.27;;
55090;SDS011;40985;53.180;5.800;2022-10-26T15:20:52;3.75;;;0.80;;
55090;SDS011;40985;53.180;5.800;2022-10-26T15:23:22;5.55;;;0.60;;
55090;SDS011;40985;53.180;5.800;2022-10-26T15:25:54;6.68;;;1.30;;
55090;SDS011;40985;53.180;5.800;2022-10-26T15:31:06;6.95;;;1.08;;
55090;SDS011;40985;53.180;5.800;2022-10-26T15:33:35;6.72;;;0.90;;
55090;SDS011;40985;53.180;5.800;2022-10-26T15:38:40;7.75;;;0.88;;
55090;SDS011;40985;53.180;5.800;2022-10-26T15:41:26;6.00;;;1.30;;
55090;SDS011;40985;53.180;5.800;2022-10-26T15:43:55;4.55;;;1.45;;
55090;SDS011;40985;53.180;5.800;2022-10-26T15:46:23;8.45;;;1.17;;
55090;SDS011;40985;53.180;5.800;2022-10-26T15:48:53;5.43;;;1.33;;
55090;SDS011;40985;53.180;5.800;2022-10-26T15:51:21;3.83;;;1.67;;
55090;SDS011;40985;53.180;5.800;2022-10-26T15:53:47;9.18;;;1.90;;
55090;SDS011;40985;53.180;5.800;2022-10-26T15:56:17;8.35;;;2.03;;
55090;SDS011;40985;53.180;5.800;2022-10-26T15:58:47;9.50;;;2.55;;
55090;SDS011;40985;53.180;5.800;2022-10-26T16:01:20;4.88;;;2.17;;
55090;SDS011;40985;53.180;5.800;2022-10-26T16:03:47;7.90;;;1.83;;
55090;SDS011;40985;53.180;5.800;2022-10-26T16:08:57;8.90;;;2.47;;
55090;SDS011;40985;53.180;5.800;2022-10-26T16:11:25;7.57;;;1.65;;
55090;SDS011;40985;53.180;5.800;2022-10-26T16:13:51;8.80;;;1.55;;
55090;SDS011;40985;53.180;5.800;2022-10-26T16:16:17;8.07;;;1.65;;
55090;SDS011;40985;53.180;5.800;2022-10-26T16:18:44;6.72;;;1.45;;
55090;SDS011;40985;53.180;5.800;2022-10-26T16:21:14;4.95;;;1.30;;
55090;SDS011;40985;53.180;5.800;2022-10-26T16:23:41;13.13;;;2.00;;
55090;SDS011;40985;53.180;5.800;2022-10-26T16:26:09;7.82;;;1.00;;
55090;SDS011;40985;53.180;5.800;2022-10-26T16:28:35;5.82;;;1.50;;
55090;SDS011;40985;53.180;5.800;2022-10-26T16:31:02;4.93;;;1.05;;
55090;SDS011;40985;53.180;5.800;2022-10-26T16:33:30;7.07;;;1.02;;
55090;SDS011;40985;53.180;5.800;2022-10-26T16:35:59;9.90;;;1.27;;
55090;SDS011;40985;53.180;5.800;2022-10-26T16:38:25;7.75;;;1.27;;
55090;SDS011;40985;53.180;5.800;2022-10-26T16:41:08;8.50;;;1.05;;
55090;SDS011;40985;53.180;5.800;2022-10-26T16:43:36;9.18;;;1.08;;
55090;SDS011;40985;53.180;5.800;2022-10-26T16:46:05;8.05;;;1.55;;
55090;SDS011;40985;53.180;5.800;2022-10-26T16:48:35;5.82;;;1.15;;
55090;SDS011;40985;53.180;5.800;2022-10-26T16:51:06;9.45;;;1.15;;
55090;SDS011;40985;53.180;5.800;2022-10-26T16:53:33;9.25;;;1.17;;
55090;SDS011;40985;53.180;5.800;2022-10-26T16:56:05;6.30;;;1.77;;
55090;SDS011;40985;53.180;5.800;2022-10-26T16:58:33;7.00;;;1.27;;
55090;SDS011;40985;53.180;5.800;2022-10-26T17:00:59;12.45;;;2.63;;
55090;SDS011;40985;53.180;5.800;2022-10-26T17:03:25;9.52;;;2.38;;
55090;SDS011;40985;53.180;5.800;2022-10-26T17:06:00;6.38;;;2.67;;
55090;SDS011;40985;53.180;5.800;2022-10-26T17:08:28;7.75;;;3.17;;
55090;SDS011;40985;53.180;5.800;2022-10-26T17:11:00;5.88;;;3.58;;
55090;SDS011;40985;53.180;5.800;2022-10-26T17:13:31;8.90;;;4.05;;
55090;SDS011;40985;53.180;5.800;2022-10-26T17:16:00;6.63;;;4.03;;